Time;durP1;ratioP1;P1;durP2;ratioP2;P2;SDS_P1;SDS_P2;PMS_P1;PMS_P2;Temp;Humidity;BMP_temperature;BMP_pressure;BME280_temperature;BME280_humidity;BME280_pressure;Samples;Min_cycle;Max_cycle;Signal;HPM_P1;HPM_P2
2021/10/24 00:00:00;;;;;;;9.65;4.25;;;;;;;4.63;88.78;101686.66;5029646;28;20068;-76
2021/10/24 00:02:25;;;;;;;7.03;3.65;;;;;;;4.61;88.53;101678.88;5029502;28;20053;-76
2021/10/24 00:04:51;;;;;;;9.32;4.03;;;;;;;4.53;88.22;101680.22;5029946;28;20045;-79
2021/10/24 00:07:16;;;;;;;7.60;4.10;;;;;;;4.51;89.73;101680.31;5032185;28;20441;-76
2021/10/24 00:09:42;;;;;;;4.85;3.38;;;;;;;4.51;88.89;101680.31;5029481;28;20037;-76
2021/10/24 00:12:07;;;;;;;6.22;4.05;;;;;;;4.47;89.03;101677.00;5029483;28;20068;-76
2021/10/24 00:14:36;;;;;;;6.97;4.13;;;;;;;4.45;89.56;101676.25;5029734;28;20030;-75
2021/10/24 00:17:03;;;;;;;6.28;4.00;;;;;;;4.43;88.95;101674.66;5029732;28;20163;-76
2021/10/24 00:19:29;;;;;;;9.32;4.07;;;;;;;4.43;89.90;101685.13;5029745;28;20430;-76
2021/10/24 00:21:58;;;;;;;6.97;4.20;;;;;;;4.44;90.21;101681.59;5029598;28;20402;-76
2021/10/24 00:24:25;;;;;;;9.93;4.53;;;;;;;4.43;89.88;101682.50;5027479;28;20513;-77
2021/10/24 00:26:51;;;;;;;7.78;4.03;;;;;;;4.38;88.96;101682.75;5028615;28;20448;-76
2021/10/24 00:29:18;;;;;;;6.57;4.18;;;;;;;4.41;89.13;101685.22;5028393;28;20042;-76
2021/10/24 00:31:44;;;;;;;6.72;4.03;;;;;;;4.33;89.28;101681.31;5029633;28;20155;-77
2021/10/24 00:34:10;;;;;;;7.40;4.18;;;;;;;4.29;89.20;101677.16;5027456;28;20041;-76
2021/10/24 00:36:36;;;;;;;7.55;4.10;;;;;;;4.33;88.45;101679.53;5029546;28;20029;-76
2021/10/24 00:39:02;;;;;;;7.47;4.03;;;;;;;4.43;88.30;101677.25;5028062;28;20033;-76
2021/10/24 00:41:30;;;;;;;6.68;4.07;;;;;;;4.45;89.21;101675.41;5021710;28;20034;-76
2021/10/24 00:43:57;;;;;;;7.75;4.20;;;;;;;4.44;89.42;101668.50;5028322;28;20510;-76
2021/10/24 00:46:23;;;;;;;6.78;3.78;;;;;;;4.46;89.04;101671.88;5027302;28;20051;-76
2021/10/24 00:48:49;;;;;;;7.28;4.22;;;;;;;4.44;89.11;101666.72;5027803;28;20037;-76
2021/10/24 00:51:15;;;;;;;8.05;4.38;;;;;;;4.40;88.48;101669.59;5029673;28;20558;-76
2021/10/24 00:53:42;;;;;;;8.23;5.00;;;;;;;4.35;89.65;101669.00;5028335;28;20052;-77
2021/10/24 00:56:08;;;;;;;7.85;4.70;;;;;;;4.31;89.96;101657.00;5028018;28;20025;-77
2021/10/24 00:58:35;;;;;;;6.40;4.00;;;;;;;4.31;90.50;101660.44;5028425;28;20037;-78
2021/10/24 01:01:02;;;;;;;8.00;4.40;;;;;;;4.28;89.93;101660.63;5028280;28;20060;-77
2021/10/24 01:03:28;;;;;;;6.97;3.40;;;;;;;4.36;88.47;101662.81;5027978;28;20203;-77
2021/10/24 01:05:55;;;;;;;8.45;3.60;;;;;;;4.53;87.66;101652.28;5027456;28;20108;-77
2021/10/24 01:08:22;;;;;;;5.95;3.55;;;;;;;4.61;88.73;101650.06;5028515;28;20069;-77
2021/10/24 01:10:47;;;;;;;6.22;3.90;;;;;;;4.57;89.20;101645.09;5032640;28;20064;-77
2021/10/24 01:13:13;;;;;;;5.50;3.65;;;;;;;4.56;89.30;101646.03;5034289;28;20049;-77
2021/10/24 01:15:39;;;;;;;5.43;3.03;;;;;;;4.52;88.59;101641.88;5033601;28;20100;-76
2021/10/24 01:18:09;;;;;;;6.38;3.60;;;;;;;4.58;87.71;101646.78;5032508;28;20034;-76
2021/10/24 01:20:36;;;;;;;6.15;3.30;;;;;;;4.50;89.38;101641.94;5031093;28;20040;-76
2021/10/24 01:23:03;;;;;;;5.25;3.10;;;;;;;4.44;89.56;101640.53;5033121;28;20060;-76
2021/10/24 01:25:29;;;;;;;6.57;3.45;;;;;;;4.36;89.56;101632.25;5031508;28;20422;-77
2021/10/24 01:27:55;;;;;;;9.27;3.50;;;;;;;4.34;90.13;101628.00;5031776;28;20076;-76
2021/10/24 01:30:22;;;;;;;5.25;2.90;;;;;;;4.32;89.96;101637.75;5030970;28;20041;-76
2021/10/24 01:32:48;;;;;;;4.88;3.28;;;;;;;4.28;90.43;101636.22;5031563;28;20439;-76
2021/10/24 01:35:14;;;;;;;6.80;3.67;;;;;;;4.18;89.64;101628.88;5031205;28;20495;-76
2021/10/24 01:37:42;;;;;;;4.85;3.03;;;;;;;4.22;89.36;101630.41;5031696;28;20036;-76
2021/10/24 01:40:15;;;;;;;6.18;3.15;;;;;;;4.23;90.58;101633.84;5030682;28;20033;-77
2021/10/24 01:42:48;;;;;;;7.00;3.08;;;;;;;4.27;91.68;101627.53;5031799;28;20033;-76
2021/10/24 01:45:15;;;;;;;4.18;2.72;;;;;;;4.24;90.88;101625.91;5030920;28;20029;-77
2021/10/24 01:47:42;;;;;;;7.10;3.10;;;;;;;4.32;88.95;101617.63;5030621;28;20414;-76
2021/10/24 01:50:08;;;;;;;6.00;3.10;;;;;;;4.51;87.04;101620.09;5031925;28;20038;-76
2021/10/24 01:52:40;;;;;;;6.72;3.25;;;;;;;4.74;86.34;101623.16;5031271;28;20426;-77
2021/10/24 01:55:09;;;;;;;6.60;3.30;;;;;;;4.80;85.59;101617.59;5031288;28;20021;-76
2021/10/24 01:57:34;;;;;;;6.75;3.33;;;;;;;4.79;84.82;101621.13;5031422;28;20441;-77
2021/10/24 02:00:01;;;;;;;5.85;3.00;;;;;;;4.75;87.33;101619.63;5032216;28;20116;-76
2021/10/24 02:02:27;;;;;;;5.05;3.13;;;;;;;4.76;86.19;101613.44;5031565;28;20430;-76
2021/10/24 02:04:53;;;;;;;4.38;2.65;;;;;;;4.68;86.40;101606.03;5032001;28;20093;-76
2021/10/24 02:07:19;;;;;;;5.20;2.95;;;;;;;4.61;86.06;101602.91;5032241;28;20064;-76
2021/10/24 02:09:46;;;;;;;5.90;2.97;;;;;;;4.68;85.54;101614.72;5032137;28;20124;-77
2021/10/24 02:12:14;;;;;;;5.50;2.88;;;;;;;4.60;85.84;101606.47;5031763;28;20036;-77
2021/10/24 02:14:40;;;;;;;7.05;3.45;;;;;;;4.68;85.74;101608.66;5030389;28;20057;-76
2021/10/24 02:17:09;;;;;;;8.65;3.33;;;;;;;4.77;85.10;101612.53;5030531;28;20030;-76
2021/10/24 02:19:38;;;;;;;5.93;2.80;;;;;;;4.77;85.31;101607.28;5031160;28;20088;-76
2021/10/24 02:22:04;;;;;;;4.45;2.78;;;;;;;4.82;84.85;101613.13;5029173;28;20030;-76
2021/10/24 02:24:32;;;;;;;5.40;2.60;;;;;;;4.88;84.86;101604.88;5031252;28;20033;-76
2021/10/24 02:26:58;;;;;;;7.75;3.05;;;;;;;4.92;85.00;101610.81;5030176;28;20038;-76
2021/10/24 02:29:25;;;;;;;4.97;2.90;;;;;;;4.92;84.13;101595.09;5031634;28;20116;-76
2021/10/24 02:31:51;;;;;;;7.20;2.88;;;;;;;4.92;84.24;101600.31;5031981;28;20052;-76
2021/10/24 02:34:26;;;;;;;5.30;2.90;;;;;;;4.79;85.58;101595.78;5031192;28;20041;-76
2021/10/24 02:36:52;;;;;;;6.05;3.05;;;;;;;4.74;85.08;101595.19;5031957;28;20524;-76
2021/10/24 02:39:18;;;;;;;9.20;3.83;;;;;;;4.74;84.97;101596.97;5030014;28;20396;-77
2021/10/24 02:41:44;;;;;;;6.25;3.30;;;;;;;4.70;84.78;101593.69;5031714;28;20029;-77
2021/10/24 02:44:10;;;;;;;5.47;3.05;;;;;;;4.72;84.38;101589.22;5030787;28;20125;-77
2021/10/24 02:46:35;;;;;;;6.07;3.28;;;;;;;4.77;85.10;101589.78;5030105;28;20116;-76
2021/10/24 02:49:01;;;;;;;6.35;3.28;;;;;;;4.74;84.55;101586.47;5031626;28;20041;-76
2021/10/24 02:51:26;;;;;;;6.10;3.03;;;;;;;4.70;84.33;101587.63;5030124;28;20453;-76
2021/10/24 02:53:52;;;;;;;7.35;2.97;;;;;;;4.56;86.90;101588.41;5031407;28;20401;-76
2021/10/24 02:56:17;;;;;;;8.27;3.13;;;;;;;4.53;85.79;101585.94;5030251;28;20022;-76
2021/10/24 02:58:43;;;;;;;6.88;3.15;;;;;;;4.52;84.73;101585.09;5031215;28;20048;-76
2021/10/24 03:01:08;;;;;;;6.45;3.17;;;;;;;4.46;85.87;101583.66;5029752;28;20029;-76
2021/10/24 03:03:33;;;;;;;6.25;3.03;;;;;;;4.40;86.77;101583.16;5031250;28;20078;-76
2021/10/24 03:05:59;;;;;;;5.47;3.03;;;;;;;4.35;86.50;101580.81;5030940;28;20247;-76
2021/10/24 03:08:24;;;;;;;6.03;3.40;;;;;;;4.40;85.20;101583.16;5030621;28;20108;-76
2021/10/24 03:10:49;;;;;;;5.13;3.13;;;;;;;4.36;86.10;101576.41;5031097;28;20110;-77
2021/10/24 03:13:15;;;;;;;5.07;3.30;;;;;;;4.40;85.79;101565.66;5029498;28;20487;-76
2021/10/24 03:15:41;;;;;;;5.05;2.85;;;;;;;4.53;85.24;101568.47;5030674;28;20033;-76
2021/10/24 03:18:06;;;;;;;6.55;3.00;;;;;;;4.56;84.42;101570.91;5030367;28;20518;-76
2021/10/24 03:20:32;;;;;;;5.30;3.17;;;;;;;4.58;86.11;101576.06;5029712;28;20060;-76
2021/10/24 03:22:58;;;;;;;8.57;3.22;;;;;;;4.55;85.36;101571.81;5029411;28;20536;-76
2021/10/24 03:25:23;;;;;;;7.40;3.40;;;;;;;4.53;85.01;101568.47;5029079;28;20033;-77
2021/10/24 03:27:49;;;;;;;6.10;3.35;;;;;;;4.59;84.71;101572.50;5030878;28;20060;-76
2021/10/24 03:30:14;;;;;;;6.03;3.20;;;;;;;4.56;84.39;101567.44;5028524;28;20029;-77
2021/10/24 03:32:39;;;;;;;4.80;3.17;;;;;;;4.62;84.21;101569.69;5030729;28;20044;-76
2021/10/24 03:35:05;;;;;;;5.35;2.78;;;;;;;4.61;85.21;101560.16;5030508;28;20409;-77
2021/10/24 03:37:30;;;;;;;4.15;3.00;;;;;;;4.61;85.06;101563.63;5030549;28;20087;-76
2021/10/24 03:39:56;;;;;;;5.38;3.00;;;;;;;4.61;84.72;101568.84;5030489;28;20071;-77
2021/10/24 03:42:21;;;;;;;5.95;3.15;;;;;;;4.65;84.46;101572.16;5029643;28;20033;-77
2021/10/24 03:44:46;;;;;;;6.25;3.30;;;;;;;4.62;84.77;101567.06;5028580;28;20113;-76
2021/10/24 03:47:12;;;;;;;8.43;3.20;;;;;;;4.57;84.58;101572.56;5030466;28;20494;-76
2021/10/24 03:49:37;;;;;;;5.30;3.03;;;;;;;4.57;84.68;101569.13;5028998;28;20033;-76
2021/10/24 03:52:03;;;;;;;4.18;2.72;;;;;;;4.49;84.56;101572.19;5029995;28;20030;-76
2021/10/24 03:54:28;;;;;;;6.00;3.38;;;;;;;4.51;84.64;101572.94;5029871;28;20025;-76
2021/10/24 03:56:53;;;;;;;6.07;3.20;;;;;;;4.45;83.69;101571.50;5030514;28;20177;-77
2021/10/24 03:59:19;;;;;;;6.35;2.80;;;;;;;4.38;84.43;101567.53;5028807;28;20550;-77
2021/10/24 04:01:44;;;;;;;7.00;3.22;;;;;;;4.42;84.17;101563.81;5028665;28;20033;-77
2021/10/24 04:04:10;;;;;;;6.15;2.85;;;;;;;4.43;83.74;101564.66;5029252;28;20113;-76
2021/10/24 04:06:35;;;;;;;7.18;3.50;;;;;;;4.47;83.30;101567.00;5029983;28;20406;-77
2021/10/24 04:09:00;;;;;;;5.40;2.92;;;;;;;4.39;84.84;101563.16;5029928;28;20401;-76
2021/10/24 04:11:25;;;;;;;5.25;2.85;;;;;;;4.38;84.39;101569.31;5029432;28;20033;-76
2021/10/24 04:13:51;;;;;;;6.40;3.17;;;;;;;4.42;83.85;101558.56;5028536;28;20120;-76
2021/10/24 04:16:16;;;;;;;4.95;2.58;;;;;;;4.50;83.31;101562.53;5029175;28;20091;-76
2021/10/24 04:18:42;;;;;;;5.95;2.75;;;;;;;4.50;83.78;101560.75;5029819;28;20040;-76
2021/10/24 04:21:07;;;;;;;5.80;2.95;;;;;;;4.52;83.47;101563.31;5028221;28;20029;-76
2021/10/24 04:23:32;;;;;;;7.88;2.60;;;;;;;4.46;83.14;101562.72;5029938;28;20389;-77
2021/10/24 04:25:58;;;;;;;5.18;2.67;;;;;;;4.49;83.29;101559.09;5028940;28;20072;-76
2021/10/24 04:28:23;;;;;;;4.70;2.90;;;;;;;4.50;83.58;101565.16;5029092;28;20037;-77
2021/10/24 04:30:49;;;;;;;6.30;2.92;;;;;;;4.48;83.02;101562.63;5028283;28;20406;-76
2021/10/24 04:33:14;;;;;;;6.57;2.60;;;;;;;4.52;82.83;101568.53;5028097;28;20037;-76
2021/10/24 04:35:40;;;;;;;7.03;2.78;;;;;;;4.42;83.13;101561.19;5029279;28;20052;-76
2021/10/24 04:38:05;;;;;;;7.05;2.70;;;;;;;4.49;82.61;101559.09;5029307;28;20068;-77
2021/10/24 04:40:31;;;;;;;4.82;3.08;;;;;;;4.44;82.97;101561.13;5029572;28;20033;-77
2021/10/24 04:42:56;;;;;;;6.15;2.72;;;;;;;4.47;82.32;101555.69;5029628;28;20025;-77
2021/10/24 04:45:21;;;;;;;6.60;2.67;;;;;;;4.42;82.96;101561.19;5030913;28;20390;-76
2021/10/24 04:47:47;;;;;;;6.38;2.47;;;;;;;4.41;82.87;101546.44;5034044;28;20065;-76
2021/10/24 04:50:12;;;;;;;5.25;2.30;;;;;;;4.39;83.04;101550.91;5032880;28;20144;-77
2021/10/24 04:52:37;;;;;;;5.45;2.20;;;;;;;4.37;83.31;101550.13;5033544;28;20057;-77
2021/10/24 04:55:05;;;;;;;4.25;2.15;;;;;;;4.40;83.14;101549.13;5033298;28;20520;-76
2021/10/24 04:57:30;;;;;;;5.55;2.58;;;;;;;4.40;82.77;101547.34;5033406;28;20144;-76
2021/10/24 04:59:56;;;;;;;4.35;2.53;;;;;;;4.45;82.38;101547.91;5033508;28;20030;-76
2021/10/24 05:02:21;;;;;;;6.60;2.45;;;;;;;4.46;82.07;101544.38;5032702;28;20033;-77
2021/10/24 05:04:47;;;;;;;5.70;2.50;;;;;;;4.49;82.08;101545.16;5033135;28;20128;-76
2021/10/24 05:07:12;;;;;;;4.78;2.95;;;;;;;4.43;82.18;101535.84;5033243;28;20033;-76
2021/10/24 05:09:37;;;;;;;5.13;2.45;;;;;;;4.48;81.37;101533.81;5033025;28;20171;-77
2021/10/24 05:12:03;;;;;;;7.40;2.95;;;;;;;4.46;81.82;101539.16;5032628;28;20521;-76
2021/10/24 05:14:29;;;;;;;5.78;2.28;;;;;;;4.39;82.87;101535.19;5032583;28;20033;-77
2021/10/24 05:16:54;;;;;;;5.53;2.70;;;;;;;4.38;84.57;101537.88;5033402;28;20520;-76
2021/10/24 05:19:19;;;;;;;4.20;2.47;;;;;;;4.28;85.38;101534.94;5032846;28;20037;-76
2021/10/24 05:21:45;;;;;;;6.10;2.42;;;;;;;4.18;86.69;101532.00;5033406;28;20026;-78
2021/10/24 05:24:10;;;;;;;4.15;2.42;;;;;;;4.09;87.21;101523.81;5032863;28;20032;-77
2021/10/24 05:26:35;;;;;;;3.70;2.55;;;;;;;3.99;86.68;101539.19;5034052;28;20121;-78
2021/10/24 05:29:01;;;;;;;4.80;2.58;;;;;;;3.91;87.03;101533.50;5034725;28;20037;-78
2021/10/24 05:31:26;;;;;;;3.60;2.40;;;;;;;3.87;86.55;101532.00;5033500;28;20026;-77
2021/10/24 05:33:51;;;;;;;4.40;3.00;;;;;;;3.83;88.25;101526.09;5033107;28;20509;-77
2021/10/24 05:36:17;;;;;;;5.18;2.47;;;;;;;3.87;86.40;101532.84;5032188;28;20064;-78
2021/10/24 05:38:42;;;;;;;4.55;2.28;;;;;;;3.82;86.71;101532.25;5034600;28;20036;-78
2021/10/24 05:41:08;;;;;;;3.72;2.47;;;;;;;3.87;84.80;101537.25;5034182;28;20034;-78
2021/10/24 05:43:33;;;;;;;4.80;2.60;;;;;;;3.82;85.21;101529.66;5034349;28;20401;-78
2021/10/24 05:45:58;;;;;;;5.68;2.70;;;;;;;3.86;84.98;101528.53;5034151;28;20067;-78
2021/10/24 05:48:23;;;;;;;4.68;2.40;;;;;;;3.83;85.68;101526.94;5033969;28;20087;-78
2021/10/24 05:50:49;;;;;;;14.68;3.00;;;;;;;3.92;84.20;101522.97;5033804;28;20406;-78
2021/10/24 05:53:15;;;;;;;7.50;2.70;;;;;;;3.94;84.31;101522.91;5034178;28;20087;-78
2021/10/24 05:55:40;;;;;;;5.18;2.40;;;;;;;3.85;85.33;101528.63;5033260;28;20037;-78
2021/10/24 05:58:06;;;;;;;7.78;2.47;;;;;;;3.81;85.64;101533.19;5033370;28;20131;-78
2021/10/24 06:00:32;;;;;;;6.40;2.65;;;;;;;3.75;86.57;101518.66;5033778;28;20052;-78
2021/10/24 06:03:04;;;;;;;6.95;2.67;;;;;;;3.73;86.10;101532.75;5033798;28;20258;-78
2021/10/24 06:05:30;;;;;;;5.43;2.47;;;;;;;3.65;86.46;101527.94;5033783;28;20034;-78
2021/10/24 06:07:55;;;;;;;3.75;2.00;;;;;;;3.67;85.83;101525.22;5033453;28;20055;-78
2021/10/24 06:10:22;;;;;;;7.30;2.75;;;;;;;3.75;85.08;101534.38;5033155;28;20462;-78
2021/10/24 06:12:51;;;;;;;6.57;3.13;;;;;;;3.77;84.67;101537.75;5033801;28;20034;-78
2021/10/24 06:15:19;;;;;;;5.28;2.92;;;;;;;3.83;84.40;101531.31;5041859;28;20045;-78
2021/10/24 06:17:46;;;;;;;5.65;2.72;;;;;;;3.85;84.18;101533.88;5043085;28;20112;-78
2021/10/24 06:20:13;;;;;;;5.85;3.15;;;;;;;3.89;83.86;101533.63;5041888;28;20030;-78
2021/10/24 06:22:40;;;;;;;3.78;2.30;;;;;;;3.86;86.95;101532.94;5038272;28;20116;-78
2021/10/24 06:25:07;;;;;;;5.47;2.85;;;;;;;3.78;87.83;101538.59;5033868;28;20363;-78
2021/10/24 06:27:36;;;;;;;4.72;2.45;;;;;;;3.77;87.12;101542.97;5032911;28;20112;-77
2021/10/24 06:30:02;;;;;;;4.20;2.15;;;;;;;3.75;86.93;101544.81;5032613;28;20041;-78
2021/10/24 06:32:29;;;;;;;4.93;2.15;;;;;;;3.72;87.71;101539.78;5025255;28;20056;-78
2021/10/24 06:34:54;;;;;;;4.82;2.70;;;;;;;3.69;86.38;101539.91;5033464;28;20494;-78
2021/10/24 06:37:20;;;;;;;4.72;2.83;;;;;;;3.67;87.79;101543.53;5033648;28;20044;-78
2021/10/24 06:39:46;;;;;;;8.27;4.13;;;;;;;3.71;85.93;101547.69;5033083;28;20048;-78
2021/10/24 06:42:11;;;;;;;7.63;4.50;;;;;;;3.68;87.83;101550.47;5032638;28;20123;-78
2021/10/24 06:44:36;;;;;;;7.50;4.80;;;;;;;3.70;88.63;101551.25;5033201;28;20034;-78
2021/10/24 06:47:02;;;;;;;8.65;5.55;;;;;;;3.74;88.24;101556.22;5033160;28;20379;-78
2021/10/24 06:49:28;;;;;;;7.03;4.05;;;;;;;3.76;87.26;101556.13;5033754;28;20037;-78
2021/10/24 06:51:53;;;;;;;5.15;3.38;;;;;;;3.82;87.43;101548.81;5033616;28;20026;-78
2021/10/24 06:54:18;;;;;;;5.93;3.20;;;;;;;3.92;86.62;101554.38;5033277;28;20116;-78
2021/10/24 06:56:43;;;;;;;5.15;3.40;;;;;;;3.94;87.24;101549.06;5033548;28;20124;-78
2021/10/24 06:59:09;;;;;;;4.85;3.10;;;;;;;3.94;89.69;101549.91;5032944;28;20038;-78
2021/10/24 07:01:34;;;;;;;7.07;3.47;;;;;;;3.94;88.78;101556.91;5032843;28;20075;-78
2021/10/24 07:04:01;;;;;;;5.55;3.63;;;;;;;3.93;88.88;101555.22;5031465;28;20462;-78
2021/10/24 07:06:26;;;;;;;5.40;3.20;;;;;;;3.98;90.31;101556.66;5031524;28;20034;-78
2021/10/24 07:08:52;;;;;;;6.78;4.20;;;;;;;4.09;89.90;101565.69;5032491;28;20036;-78
2021/10/24 07:11:17;;;;;;;5.57;3.30;;;;;;;4.23;89.76;101561.38;5032806;28;20040;-78
2021/10/24 07:13:42;;;;;;;5.15;3.35;;;;;;;4.28;89.67;101563.75;5031357;28;20458;-78
2021/10/24 07:16:07;;;;;;;5.20;3.80;;;;;;;4.40;88.42;101563.06;5032484;28;20052;-77
2021/10/24 07:18:34;;;;;;;8.50;4.20;;;;;;;4.46;88.47;101557.47;5032986;28;20516;-78
2021/10/24 07:20:59;;;;;;;6.80;4.03;;;;;;;4.58;88.16;101560.34;5031712;28;20113;-78
2021/10/24 07:23:25;;;;;;;6.78;3.67;;;;;;;4.68;87.64;101556.25;5031368;28;20049;-78
2021/10/24 07:25:50;;;;;;;6.03;4.32;;;;;;;4.68;88.27;101558.88;5032306;28;20041;-77
2021/10/24 07:28:16;;;;;;;6.35;4.45;;;;;;;4.74;87.75;101557.66;5032357;28;20030;-78
2021/10/24 07:30:41;;;;;;;5.18;3.92;;;;;;;4.85;87.81;101563.13;5033026;28;20038;-78
2021/10/24 07:33:06;;;;;;;6.57;3.80;;;;;;;4.97;88.07;101561.56;5031145;28;20036;-78
2021/10/24 07:35:32;;;;;;;7.35;3.50;;;;;;;5.17;86.40;101557.75;5032364;28;20022;-78
2021/10/24 07:37:58;;;;;;;5.75;3.30;;;;;;;5.29;85.41;101559.66;5032444;28;20498;-78
2021/10/24 07:40:24;;;;;;;5.82;3.20;;;;;;;5.42;85.14;101557.16;5030268;28;20033;-78
2021/10/24 07:42:50;;;;;;;5.35;3.00;;;;;;;5.48;84.51;101564.63;5030634;28;20038;-78
2021/10/24 07:45:16;;;;;;;6.63;3.63;;;;;;;5.48;85.05;101559.38;5031254;28;20247;-78
2021/10/24 07:47:41;;;;;;;4.95;2.92;;;;;;;5.57;84.49;101558.00;5029780;28;20038;-78
2021/10/24 07:50:10;;;;;;;7.53;3.15;;;;;;;5.79;83.73;101560.13;5030467;28;20490;-77
2021/10/24 07:52:37;;;;;;;6.30;3.42;;;;;;;5.96;82.69;101554.72;5031423;28;20453;-78
2021/10/24 07:55:03;;;;;;;6.38;3.47;;;;;;;6.13;81.98;101559.72;5031635;28;20426;-78
2021/10/24 07:57:28;;;;;;;6.00;2.72;;;;;;;6.36;81.37;101550.38;5031725;28;20025;-78
2021/10/24 07:59:54;;;;;;;4.47;2.70;;;;;;;6.51;80.40;101552.97;5031478;28;20128;-77
2021/10/24 08:02:20;;;;;;;5.82;2.53;;;;;;;6.73;77.25;101563.72;5030713;28;20121;-78
2021/10/24 08:04:46;;;;;;;5.82;3.03;;;;;;;6.79;77.26;101552.81;5031031;28;20061;-78
2021/10/24 08:07:11;;;;;;;3.13;2.05;;;;;;;6.78;78.57;101553.75;5031308;28;20042;-78
2021/10/24 08:09:37;;;;;;;5.35;2.80;;;;;;;6.87;78.51;101549.69;5031500;28;20043;-77
2021/10/24 08:12:03;;;;;;;6.03;3.00;;;;;;;6.84;78.19;101549.88;5031077;28;20033;-78
2021/10/24 08:14:28;;;;;;;6.97;3.17;;;;;;;6.85;76.67;101550.72;5030960;28;20025;-77
2021/10/24 08:16:54;;;;;;;6.13;2.88;;;;;;;6.90;77.80;101546.84;5029769;28;20029;-77
2021/10/24 08:19:20;;;;;;;5.75;2.88;;;;;;;7.11;76.80;101547.19;5030123;28;20047;-78
2021/10/24 08:21:47;;;;;;;5.60;2.65;;;;;;;7.27;76.38;101539.09;5030983;28;20087;-78
2021/10/24 08:24:12;;;;;;;6.70;2.92;;;;;;;7.47;75.74;101548.22;5030664;28;20037;-78
2021/10/24 08:26:38;;;;;;;3.92;2.42;;;;;;;7.76;72.39;101534.81;5031044;28;20038;-78
2021/10/24 08:29:03;;;;;;;6.63;2.90;;;;;;;7.93;71.11;101537.09;5030010;28;20394;-78
2021/10/24 08:31:29;;;;;;;8.35;3.28;;;;;;;8.07;69.09;101536.09;5030527;28;20394;-78
2021/10/24 08:33:59;;;;;;;5.55;2.80;;;;;;;8.12;69.32;101528.69;5030005;28;20034;-76
2021/10/24 08:36:26;;;;;;;6.78;2.83;;;;;;;7.98;68.56;101532.31;5028707;28;20040;-76
2021/10/24 08:38:52;;;;;;;6.22;2.60;;;;;;;8.06;70.29;101531.78;5029732;28;20064;-78
2021/10/24 08:41:27;;;;;;;6.25;2.78;;;;;;;8.13;69.56;101529.53;5028866;28;20059;-78
2021/10/24 08:43:53;;;;;;;4.63;2.67;;;;;;;8.13;70.70;101521.63;5030879;28;20040;-78
2021/10/24 08:46:20;;;;;;;6.60;2.78;;;;;;;8.18;70.04;101523.00;5029923;28;20038;-78
2021/10/24 08:48:46;;;;;;;5.10;2.35;;;;;;;8.21;69.64;101522.75;5030606;28;20033;-78
2021/10/24 08:51:13;;;;;;;6.28;2.92;;;;;;;8.25;69.99;101520.75;5029165;28;20128;-77
2021/10/24 08:53:48;;;;;;;8.93;3.00;;;;;;;8.43;68.49;101526.50;5029408;28;20034;-77
2021/10/24 08:56:19;;;;;;;6.50;3.00;;;;;;;8.45;68.70;101517.50;5029848;28;20042;-77
2021/10/24 08:58:46;;;;;;;5.43;3.00;;;;;;;8.53;69.43;101514.31;5030804;28;20029;-78
2021/10/24 09:01:12;;;;;;;6.82;2.63;;;;;;;8.52;68.26;101510.00;5029035;28;20053;-78
2021/10/24 09:03:58;;;;;;;4.72;2.55;;;;;;;8.59;69.11;101511.22;5030694;28;20062;-78
2021/10/24 09:06:42;;;;;;;4.93;2.55;;;;;;;8.81;68.60;101505.16;5028839;28;20040;-78
2021/10/24 09:09:18;;;;;;;5.45;2.60;;;;;;;9.04;68.04;101494.66;5030304;28;20111;-76
2021/10/24 09:12:06;;;;;;;5.15;2.25;;;;;;;9.29;67.31;101496.25;5029241;28;20034;-76
2021/10/24 09:14:34;;;;;;;4.15;2.40;;;;;;;9.44;65.74;101497.69;5028940;28;20100;-76
2021/10/24 09:17:00;;;;;;;4.47;2.30;;;;;;;9.56;67.23;101495.88;5029154;28;20041;-76
2021/10/24 09:19:25;;;;;;;4.22;1.85;;;;;;;9.71;66.53;101485.91;5029060;28;20532;-78
2021/10/24 09:21:50;;;;;;;4.40;2.13;;;;;;;9.83;65.94;101492.84;5030087;28;20055;-78
2021/10/24 09:24:16;;;;;;;4.82;2.17;;;;;;;9.98;65.48;101496.03;5028485;28;20041;-78
2021/10/24 09:26:42;;;;;;;4.70;2.08;;;;;;;10.09;66.36;101495.19;5029135;28;20037;-78
2021/10/24 09:29:15;;;;;;;3.75;2.03;;;;;;;10.28;64.53;101500.66;5030557;28;20037;-78
2021/10/24 09:31:49;;;;;;;5.18;2.22;;;;;;;10.44;62.59;101494.09;5031948;28;20397;-78
2021/10/24 09:34:20;;;;;;;4.82;2.03;;;;;;;10.51;63.02;101490.00;5033644;28;20390;-78
2021/10/24 09:37:00;;;;;;;4.43;2.17;;;;;;;10.56;62.60;101482.53;5032736;28;20087;-76
2021/10/24 09:39:30;;;;;;;5.38;2.15;;;;;;;10.43;64.52;101482.69;5032799;28;20087;-78
2021/10/24 09:42:17;;;;;;;3.38;2.08;;;;;;;10.51;64.01;101479.41;5034009;28;20500;-78
2021/10/24 09:45:06;;;;;;;3.63;2.00;;;;;;;10.53;64.06;101477.47;5033378;28;20036;-78
2021/10/24 09:47:36;;;;;;;4.82;2.30;;;;;;;10.48;62.33;101480.50;5033747;28;20037;-78
2021/10/24 09:50:04;;;;;;;3.55;2.15;;;;;;;10.53;64.94;101477.47;5033590;28;20026;-78
2021/10/24 09:52:31;;;;;;;5.75;2.40;;;;;;;10.56;65.06;101474.59;5033447;28;20371;-78
2021/10/24 09:54:57;;;;;;;4.68;2.05;;;;;;;10.64;65.50;101480.06;5032209;28;20045;-78
2021/10/24 09:57:23;;;;;;;5.35;2.53;;;;;;;10.74;64.15;101473.03;5033356;28;20090;-76
2021/10/24 09:59:51;;;;;;;3.45;2.05;;;;;;;10.93;63.73;101471.47;5032525;28;20038;-76
2021/10/24 10:02:18;;;;;;;3.40;2.00;;;;;;;11.05;62.16;101459.84;5031565;28;20041;-76
2021/10/24 10:04:45;;;;;;;3.58;2.05;;;;;;;11.18;63.29;101464.94;5031758;28;20386;-76
2021/10/24 10:07:11;;;;;;;4.35;2.22;;;;;;;11.23;62.37;101463.56;5032255;28;20056;-76
2021/10/24 10:09:36;;;;;;;3.92;2.00;;;;;;;11.17;61.81;101453.47;5032092;28;20030;-76
2021/10/24 10:12:04;;;;;;;3.88;2.10;;;;;;;11.20;61.38;101455.03;5031757;28;20076;-76
2021/10/24 10:14:32;;;;;;;4.13;1.75;;;;;;;11.30;63.12;101458.56;5031681;28;20034;-78
2021/10/24 10:17:10;;;;;;;3.67;2.00;;;;;;;11.42;62.76;101451.38;5031376;28;20422;-76
2021/10/24 10:19:38;;;;;;;3.53;2.33;;;;;;;11.60;62.28;101455.03;5030957;28;20494;-76
2021/10/24 10:22:22;;;;;;;3.88;2.22;;;;;;;11.62;62.55;101453.06;5032113;28;20409;-76
2021/10/24 10:24:53;;;;;;;6.32;2.63;;;;;;;11.70;61.72;101441.78;5032253;28;20044;-77
2021/10/24 10:27:39;;;;;;;4.57;2.30;;;;;;;11.91;61.22;101449.66;5031482;28;20044;-77
2021/10/24 10:30:07;;;;;;;3.75;2.10;;;;;;;11.97;61.19;101446.47;5031479;28;20399;-76
2021/10/24 10:32:36;;;;;;;4.88;2.17;;;;;;;12.09;61.48;101442.72;5032244;28;20465;-76
2021/10/24 10:35:06;;;;;;;3.40;2.15;;;;;;;12.13;61.40;101432.66;5031752;28;20472;-76
2021/10/24 10:37:55;;;;;;;3.42;1.65;;;;;;;12.09;62.18;101434.75;5024670;28;20502;-76
2021/10/24 10:40:32;;;;;;;4.55;2.30;;;;;;;12.09;60.25;101437.41;5030993;28;20465;-76
2021/10/24 10:42:57;;;;;;;4.15;1.90;;;;;;;12.10;61.78;101439.06;5031861;28;20525;-76
2021/10/24 10:45:26;;;;;;;4.93;2.33;;;;;;;12.17;62.36;101433.22;5031586;28;20256;-76
2021/10/24 10:47:56;;;;;;;3.58;2.30;;;;;;;12.23;61.53;101424.72;5030393;28;20096;-77
2021/10/24 10:50:31;;;;;;;3.63;2.03;;;;;;;12.25;61.67;101428.03;5030797;28;20038;-76
2021/10/24 10:53:04;;;;;;;4.63;2.40;;;;;;;12.30;60.39;101424.00;5030311;28;20498;-76
2021/10/24 10:56:00;;;;;;;4.20;2.15;;;;;;;12.43;61.09;101421.06;5023642;28;20064;-76
2021/10/24 10:58:36;;;;;;;4.70;2.30;;;;;;;12.40;61.32;101418.69;5031196;28;20045;-76
2021/10/24 11:01:03;;;;;;;6.75;2.20;;;;;;;12.51;60.67;101417.69;5031322;28;20037;-76
2021/10/24 11:04:18;;;;;;;4.68;2.00;;;;;;;12.55;60.17;101421.75;5030036;28;20405;-76
2021/10/24 11:06:50;;;;;;;4.38;2.10;;;;;;;12.60;60.45;101421.31;5028631;28;20099;-76
2021/10/24 11:09:37;;;;;;;5.65;2.35;;;;;;;12.61;60.36;101415.88;5031394;28;20483;-77
2021/10/24 11:12:05;;;;;;;4.38;2.10;;;;;;;12.75;60.16;101414.56;5030579;28;20091;-77
2021/10/24 11:14:33;;;;;;;6.00;2.85;;;;;;;12.80;59.85;101406.16;5031104;28;20031;-76
2021/10/24 11:17:00;;;;;;;3.78;2.08;;;;;;;12.88;56.93;101404.47;5031468;28;20037;-77
2021/10/24 11:19:28;;;;;;;4.50;2.17;;;;;;;12.92;58.67;101402.38;5035413;28;20033;-76
2021/10/24 11:22:09;;;;;;;4.85;2.15;;;;;;;13.06;59.41;101401.03;5037355;28;20473;-76
2021/10/24 11:24:51;;;;;;;3.60;1.50;;;;;;;13.04;57.36;101406.50;5036278;28;20057;-77
2021/10/24 11:27:22;;;;;;;3.05;1.60;;;;;;;13.19;57.69;101393.56;5035184;28;20583;-76
2021/10/24 11:29:56;;;;;;;2.97;1.48;;;;;;;13.17;56.91;101396.38;5031963;28;20037;-76
2021/10/24 11:32:40;;;;;;;4.18;1.70;;;;;;;13.16;57.26;101393.88;5031109;28;20041;-76